sensor_id;sensor_type;location;lat;lon;timestamp;P1;durP1;ratioP1;P2;durP2;ratioP2
19569;SDS011;9931;51.458;7.256;2023-12-29T00:00:57;24.67;;;4.47;;
19569;SDS011;9931;51.458;7.256;2023-12-29T00:03:22;4.53;;;2.95;;
19569;SDS011;9931;51.458;7.256;2023-12-29T00:05:47;8.50;;;3.50;;
19569;SDS011;9931;51.458;7.256;2023-12-29T00:08:12;14.63;;;3.67;;
19569;SDS011;9931;51.458;7.256;2023-12-29T00:10:38;19.10;;;5.07;;
19569;SDS011;9931;51.458;7.256;2023-12-29T00:13:03;21.52;;;4.25;;
19569;SDS011;9931;51.458;7.256;2023-12-29T00:15:28;20.23;;;4.28;;
19569;SDS011;9931;51.458;7.256;2023-12-29T00:17:53;17.17;;;4.23;;
19569;SDS011;9931;51.458;7.256;2023-12-29T00:20:18;17.63;;;3.80;;
19569;SDS011;9931;51.458;7.256;2023-12-29T00:22:44;16.03;;;4.83;;
19569;SDS011;9931;51.458;7.256;2023-12-29T00:25:09;15.30;;;4.40;;
19569;SDS011;9931;51.458;7.256;2023-12-29T00:27:35;21.33;;;4.85;;
19569;SDS011;9931;51.458;7.256;2023-12-29T00:30:00;16.83;;;4.30;;
19569;SDS011;9931;51.458;7.256;2023-12-29T00:32:25;5.30;;;4.32;;
19569;SDS011;9931;51.458;7.256;2023-12-29T00:34:51;19.50;;;5.13;;
19569;SDS011;9931;51.458;7.256;2023-12-29T00:37:16;17.52;;;5.15;;
19569;SDS011;9931;51.458;7.256;2023-12-29T00:39:41;15.05;;;5.80;;
19569;SDS011;9931;51.458;7.256;2023-12-29T00:42:06;62.83;;;8.03;;
19569;SDS011;9931;51.458;7.256;2023-12-29T00:44:32;25.00;;;6.63;;
19569;SDS011;9931;51.458;7.256;2023-12-29T00:46:57;7.10;;;5.00;;
19569;SDS011;9931;51.458;7.256;2023-12-29T00:49:23;14.27;;;4.85;;
19569;SDS011;9931;51.458;7.256;2023-12-29T00:51:48;19.88;;;6.90;;
19569;SDS011;9931;51.458;7.256;2023-12-29T00:54:13;16.83;;;6.78;;
19569;SDS011;9931;51.458;7.256;2023-12-29T00:56:38;17.20;;;6.38;;
19569;SDS011;9931;51.458;7.256;2023-12-29T00:59:04;19.33;;;5.80;;
19569;SDS011;9931;51.458;7.256;2023-12-29T01:01:32;21.15;;;5.45;;
19569;SDS011;9931;51.458;7.256;2023-12-29T01:03:57;26.50;;;5.65;;
19569;SDS011;9931;51.458;7.256;2023-12-29T01:06:23;8.33;;;4.27;;
19569;SDS011;9931;51.458;7.256;2023-12-29T01:08:48;6.80;;;4.77;;
19569;SDS011;9931;51.458;7.256;2023-12-29T01:11:13;61.17;;;7.17;;
19569;SDS011;9931;51.458;7.256;2023-12-29T01:13:38;19.08;;;5.03;;
19569;SDS011;9931;51.458;7.256;2023-12-29T01:16:04;24.60;;;4.80;;
19569;SDS011;9931;51.458;7.256;2023-12-29T01:18:29;16.30;;;4.43;;
19569;SDS011;9931;51.458;7.256;2023-12-29T01:20:54;20.20;;;4.50;;
19569;SDS011;9931;51.458;7.256;2023-12-29T01:23:19;21.73;;;5.00;;
19569;SDS011;9931;51.458;7.256;2023-12-29T01:25:44;18.27;;;7.95;;
19569;SDS011;9931;51.458;7.256;2023-12-29T01:28:10;8.83;;;4.13;;
19569;SDS011;9931;51.458;7.256;2023-12-29T01:30:35;23.10;;;4.97;;
19569;SDS011;9931;51.458;7.256;2023-12-29T01:33:00;22.30;;;4.47;;
19569;SDS011;9931;51.458;7.256;2023-12-29T01:35:25;20.80;;;4.27;;
19569;SDS011;9931;51.458;7.256;2023-12-29T01:37:50;19.33;;;4.33;;
19569;SDS011;9931;51.458;7.256;2023-12-29T01:40:15;16.85;;;4.93;;
19569;SDS011;9931;51.458;7.256;2023-12-29T01:42:42;18.77;;;4.75;;
19569;SDS011;9931;51.458;7.256;2023-12-29T01:45:09;22.60;;;3.93;;
19569;SDS011;9931;51.458;7.256;2023-12-29T01:47:38;17.50;;;4.53;;
19569;SDS011;9931;51.458;7.256;2023-12-29T01:50:03;17.63;;;3.97;;
19569;SDS011;9931;51.458;7.256;2023-12-29T01:52:28;14.70;;;3.97;;
19569;SDS011;9931;51.458;7.256;2023-12-29T01:54:54;11.13;;;3.70;;
19569;SDS011;9931;51.458;7.256;2023-12-29T01:57:19;17.15;;;4.32;;
19569;SDS011;9931;51.458;7.256;2023-12-29T01:59:45;18.25;;;4.63;;
19569;SDS011;9931;51.458;7.256;2023-12-29T02:02:11;58.30;;;6.97;;
19569;SDS011;9931;51.458;7.256;2023-12-29T02:04:36;19.10;;;3.75;;
19569;SDS011;9931;51.458;7.256;2023-12-29T02:07:02;17.55;;;3.60;;
19569;SDS011;9931;51.458;7.256;2023-12-29T02:09:27;10.00;;;3.28;;
19569;SDS011;9931;51.458;7.256;2023-12-29T02:11:53;24.80;;;3.92;;
19569;SDS011;9931;51.458;7.256;2023-12-29T02:14:18;13.47;;;2.97;;
19569;SDS011;9931;51.458;7.256;2023-12-29T02:16:50;12.02;;;2.97;;
19569;SDS011;9931;51.458;7.256;2023-12-29T02:19:24;8.77;;;2.65;;
19569;SDS011;9931;51.458;7.256;2023-12-29T02:21:50;21.55;;;3.33;;
19569;SDS011;9931;51.458;7.256;2023-12-29T02:24:15;23.40;;;3.13;;
19569;SDS011;9931;51.458;7.256;2023-12-29T02:26:40;13.93;;;2.37;;
19569;SDS011;9931;51.458;7.256;2023-12-29T02:29:09;21.90;;;2.85;;
19569;SDS011;9931;51.458;7.256;2023-12-29T02:31:37;16.50;;;2.47;;
19569;SDS011;9931;51.458;7.256;2023-12-29T02:34:04;17.10;;;2.58;;
19569;SDS011;9931;51.458;7.256;2023-12-29T02:36:31;27.48;;;3.03;;
19569;SDS011;9931;51.458;7.256;2023-12-29T02:38:57;22.52;;;2.60;;
19569;SDS011;9931;51.458;7.256;2023-12-29T02:41:22;7.72;;;1.60;;
19569;SDS011;9931;51.458;7.256;2023-12-29T02:43:49;20.35;;;2.33;;
19569;SDS011;9931;51.458;7.256;2023-12-29T02:46:14;16.08;;;2.13;;
19569;SDS011;9931;51.458;7.256;2023-12-29T02:48:39;29.10;;;2.93;;
19569;SDS011;9931;51.458;7.256;2023-12-29T02:51:05;16.77;;;2.28;;
19569;SDS011;9931;51.458;7.256;2023-12-29T02:53:30;9.82;;;1.70;;
19569;SDS011;9931;51.458;7.256;2023-12-29T02:55:55;14.77;;;2.03;;
19569;SDS011;9931;51.458;7.256;2023-12-29T02:58:21;21.60;;;2.37;;
19569;SDS011;9931;51.458;7.256;2023-12-29T03:00:46;19.90;;;2.20;;
19569;SDS011;9931;51.458;7.256;2023-12-29T03:03:11;16.13;;;2.03;;
19569;SDS011;9931;51.458;7.256;2023-12-29T03:05:36;17.63;;;2.15;;
19569;SDS011;9931;51.458;7.256;2023-12-29T03:08:01;20.67;;;2.38;;
19569;SDS011;9931;51.458;7.256;2023-12-29T03:10:27;23.45;;;2.70;;
19569;SDS011;9931;51.458;7.256;2023-12-29T03:12:52;14.68;;;1.90;;
19569;SDS011;9931;51.458;7.256;2023-12-29T03:15:18;17.92;;;2.25;;
19569;SDS011;9931;51.458;7.256;2023-12-29T03:17:43;15.40;;;1.95;;
19569;SDS011;9931;51.458;7.256;2023-12-29T03:20:09;20.45;;;2.33;;
19569;SDS011;9931;51.458;7.256;2023-12-29T03:22:34;17.90;;;2.22;;
19569;SDS011;9931;51.458;7.256;2023-12-29T03:24:59;24.80;;;2.97;;
19569;SDS011;9931;51.458;7.256;2023-12-29T03:27:24;19.65;;;2.22;;
19569;SDS011;9931;51.458;7.256;2023-12-29T03:29:49;16.17;;;2.27;;
19569;SDS011;9931;51.458;7.256;2023-12-29T03:32:14;48.00;;;4.37;;
19569;SDS011;9931;51.458;7.256;2023-12-29T03:34:40;13.70;;;2.25;;
19569;SDS011;9931;51.458;7.256;2023-12-29T03:37:06;7.13;;;1.73;;
19569;SDS011;9931;51.458;7.256;2023-12-29T03:39:31;11.37;;;1.90;;
19569;SDS011;9931;51.458;7.256;2023-12-29T03:41:58;15.63;;;2.30;;
19569;SDS011;9931;51.458;7.256;2023-12-29T03:44:23;12.50;;;2.20;;
19569;SDS011;9931;51.458;7.256;2023-12-29T03:46:48;21.02;;;2.55;;
19569;SDS011;9931;51.458;7.256;2023-12-29T03:49:14;17.27;;;2.42;;
19569;SDS011;9931;51.458;7.256;2023-12-29T03:51:39;16.60;;;2.35;;
19569;SDS011;9931;51.458;7.256;2023-12-29T03:54:04;13.45;;;2.05;;
19569;SDS011;9931;51.458;7.256;2023-12-29T03:56:30;19.85;;;2.45;;
19569;SDS011;9931;51.458;7.256;2023-12-29T03:58:55;16.93;;;2.37;;
19569;SDS011;9931;51.458;7.256;2023-12-29T04:01:20;17.60;;;2.47;;
19569;SDS011;9931;51.458;7.256;2023-12-29T04:03:45;17.10;;;2.53;;
19569;SDS011;9931;51.458;7.256;2023-12-29T04:06:10;25.03;;;2.93;;
19569;SDS011;9931;51.458;7.256;2023-12-29T04:08:36;16.80;;;2.53;;
19569;SDS011;9931;51.458;7.256;2023-12-29T04:11:01;24.23;;;2.92;;
19569;SDS011;9931;51.458;7.256;2023-12-29T04:13:27;21.40;;;2.92;;
19569;SDS011;9931;51.458;7.256;2023-12-29T04:15:52;17.83;;;2.60;;
19569;SDS011;9931;51.458;7.256;2023-12-29T04:18:19;7.45;;;1.83;;
19569;SDS011;9931;51.458;7.256;2023-12-29T04:20:44;6.55;;;1.98;;
19569;SDS011;9931;51.458;7.256;2023-12-29T04:23:09;14.17;;;2.57;;
19569;SDS011;9931;51.458;7.256;2023-12-29T04:25:35;7.20;;;1.88;;
19569;SDS011;9931;51.458;7.256;2023-12-29T04:28:00;16.73;;;2.60;;
19569;SDS011;9931;51.458;7.256;2023-12-29T04:30:26;22.55;;;3.20;;
19569;SDS011;9931;51.458;7.256;2023-12-29T04:32:51;14.73;;;2.25;;
19569;SDS011;9931;51.458;7.256;2023-12-29T04:35:16;9.90;;;2.40;;
19569;SDS011;9931;51.458;7.256;2023-12-29T04:37:43;4.63;;;1.63;;
19569;SDS011;9931;51.458;7.256;2023-12-29T04:40:09;17.42;;;2.90;;
19569;SDS011;9931;51.458;7.256;2023-12-29T04:42:34;21.27;;;3.00;;
19569;SDS011;9931;51.458;7.256;2023-12-29T04:44:59;20.40;;;2.88;;
19569;SDS011;9931;51.458;7.256;2023-12-29T04:47:24;15.37;;;2.37;;
19569;SDS011;9931;51.458;7.256;2023-12-29T04:49:49;17.90;;;3.67;;
19569;SDS011;9931;51.458;7.256;2023-12-29T04:52:15;43.97;;;4.68;;
19569;SDS011;9931;51.458;7.256;2023-12-29T04:54:40;7.17;;;2.37;;
19569;SDS011;9931;51.458;7.256;2023-12-29T04:57:05;5.50;;;2.07;;
19569;SDS011;9931;51.458;7.256;2023-12-29T04:59:30;15.68;;;2.95;;
19569;SDS011;9931;51.458;7.256;2023-12-29T05:01:55;15.93;;;2.65;;
19569;SDS011;9931;51.458;7.256;2023-12-29T05:04:20;15.70;;;2.58;;
19569;SDS011;9931;51.458;7.256;2023-12-29T05:06:45;18.80;;;3.03;;
19569;SDS011;9931;51.458;7.256;2023-12-29T05:09:11;18.10;;;2.88;;
19569;SDS011;9931;51.458;7.256;2023-12-29T05:11:36;14.98;;;2.60;;
19569;SDS011;9931;51.458;7.256;2023-12-29T05:14:01;27.03;;;3.40;;
19569;SDS011;9931;51.458;7.256;2023-12-29T05:16:26;17.50;;;2.90;;
19569;SDS011;9931;51.458;7.256;2023-12-29T05:18:51;16.95;;;2.78;;
19569;SDS011;9931;51.458;7.256;2023-12-29T05:21:17;14.30;;;2.60;;
19569;SDS011;9931;51.458;7.256;2023-12-29T05:23:43;19.92;;;2.97;;
19569;SDS011;9931;51.458;7.256;2023-12-29T05:26:09;8.90;;;2.25;;
19569;SDS011;9931;51.458;7.256;2023-12-29T05:28:34;19.92;;;3.25;;
19569;SDS011;9931;51.458;7.256;2023-12-29T05:30:59;18.23;;;3.00;;
19569;SDS011;9931;51.458;7.256;2023-12-29T05:33:28;14.57;;;3.08;;
19569;SDS011;9931;51.458;7.256;2023-12-29T05:35:53;11.40;;;3.03;;
19569;SDS011;9931;51.458;7.256;2023-12-29T05:38:18;20.70;;;2.95;;
19569;SDS011;9931;51.458;7.256;2023-12-29T05:40:43;14.03;;;2.73;;
19569;SDS011;9931;51.458;7.256;2023-12-29T05:43:09;24.63;;;3.58;;
19569;SDS011;9931;51.458;7.256;2023-12-29T05:45:34;12.27;;;2.87;;
19569;SDS011;9931;51.458;7.256;2023-12-29T05:47:59;8.65;;;2.85;;
19569;SDS011;9931;51.458;7.256;2023-12-29T05:50:24;15.73;;;3.20;;
19569;SDS011;9931;51.458;7.256;2023-12-29T05:52:49;27.50;;;3.77;;
19569;SDS011;9931;51.458;7.256;2023-12-29T05:55:16;19.65;;;3.45;;
19569;SDS011;9931;51.458;7.256;2023-12-29T05:57:41;23.35;;;4.25;;
19569;SDS011;9931;51.458;7.256;2023-12-29T06:00:07;21.30;;;3.67;;
19569;SDS011;9931;51.458;7.256;2023-12-29T06:02:33;15.32;;;3.28;;
19569;SDS011;9931;51.458;7.256;2023-12-29T06:04:59;21.47;;;3.47;;
19569;SDS011;9931;51.458;7.256;2023-12-29T06:07:24;18.10;;;3.30;;
19569;SDS011;9931;51.458;7.256;2023-12-29T06:09:49;18.20;;;3.27;;
19569;SDS011;9931;51.458;7.256;2023-12-29T06:12:14;51.13;;;5.03;;
19569;SDS011;9931;51.458;7.256;2023-12-29T06:14:39;22.80;;;3.53;;
19569;SDS011;9931;51.458;7.256;2023-12-29T06:17:05;24.47;;;3.30;;
19569;SDS011;9931;51.458;7.256;2023-12-29T06:19:30;21.80;;;3.30;;
19569;SDS011;9931;51.458;7.256;2023-12-29T06:21:57;17.15;;;3.20;;
19569;SDS011;9931;51.458;7.256;2023-12-29T06:24:22;23.23;;;3.50;;
19569;SDS011;9931;51.458;7.256;2023-12-29T06:26:48;17.85;;;3.05;;
19569;SDS011;9931;51.458;7.256;2023-12-29T06:29:13;26.40;;;3.87;;
19569;SDS011;9931;51.458;7.256;2023-12-29T06:31:41;16.90;;;2.97;;
19569;SDS011;9931;51.458;7.256;2023-12-29T06:34:07;6.95;;;2.28;;
19569;SDS011;9931;51.458;7.256;2023-12-29T06:36:32;11.48;;;2.58;;
19569;SDS011;9931;51.458;7.256;2023-12-29T06:38:57;8.90;;;2.58;;
19569;SDS011;9931;51.458;7.256;2023-12-29T06:41:23;21.73;;;3.30;;
19569;SDS011;9931;51.458;7.256;2023-12-29T06:43:48;16.80;;;2.83;;
19569;SDS011;9931;51.458;7.256;2023-12-29T06:46:13;16.42;;;2.90;;
19569;SDS011;9931;51.458;7.256;2023-12-29T06:48:39;16.25;;;3.03;;
19569;SDS011;9931;51.458;7.256;2023-12-29T06:51:04;19.15;;;3.33;;
19569;SDS011;9931;51.458;7.256;2023-12-29T06:53:29;17.93;;;3.37;;
19569;SDS011;9931;51.458;7.256;2023-12-29T06:55:54;20.37;;;3.20;;
19569;SDS011;9931;51.458;7.256;2023-12-29T06:58:19;19.60;;;3.40;;
19569;SDS011;9931;51.458;7.256;2023-12-29T07:00:45;28.83;;;3.55;;
19569;SDS011;9931;51.458;7.256;2023-12-29T07:03:12;13.23;;;2.88;;
19569;SDS011;9931;51.458;7.256;2023-12-29T07:05:37;19.85;;;3.72;;
19569;SDS011;9931;51.458;7.256;2023-12-29T07:08:02;18.58;;;2.92;;
19569;SDS011;9931;51.458;7.256;2023-12-29T07:10:28;17.52;;;3.05;;
19569;SDS011;9931;51.458;7.256;2023-12-29T07:12:53;24.20;;;3.65;;
19569;SDS011;9931;51.458;7.256;2023-12-29T07:15:19;20.37;;;3.20;;
19569;SDS011;9931;51.458;7.256;2023-12-29T07:17:44;14.57;;;3.10;;
19569;SDS011;9931;51.458;7.256;2023-12-29T07:20:09;16.83;;;3.25;;
19569;SDS011;9931;51.458;7.256;2023-12-29T07:22:34;16.13;;;3.08;;
19569;SDS011;9931;51.458;7.256;2023-12-29T07:24:59;15.60;;;2.88;;
19569;SDS011;9931;51.458;7.256;2023-12-29T07:27:25;20.23;;;3.10;;
19569;SDS011;9931;51.458;7.256;2023-12-29T07:29:51;19.20;;;2.88;;
19569;SDS011;9931;51.458;7.256;2023-12-29T07:32:16;62.43;;;5.53;;
19569;SDS011;9931;51.458;7.256;2023-12-29T07:34:41;20.67;;;2.53;;
19569;SDS011;9931;51.458;7.256;2023-12-29T07:37:06;16.48;;;2.35;;
19569;SDS011;9931;51.458;7.256;2023-12-29T07:39:31;6.53;;;1.55;;
19569;SDS011;9931;51.458;7.256;2023-12-29T07:41:56;14.85;;;2.03;;
19569;SDS011;9931;51.458;7.256;2023-12-29T07:44:22;21.23;;;2.40;;
19569;SDS011;9931;51.458;7.256;2023-12-29T07:46:47;21.77;;;2.45;;
19569;SDS011;9931;51.458;7.256;2023-12-29T07:49:12;15.02;;;1.85;;
19569;SDS011;9931;51.458;7.256;2023-12-29T07:51:41;17.98;;;2.05;;
19569;SDS011;9931;51.458;7.256;2023-12-29T07:54:06;13.57;;;1.70;;
19569;SDS011;9931;51.458;7.256;2023-12-29T07:56:32;14.73;;;1.85;;
19569;SDS011;9931;51.458;7.256;2023-12-29T07:58:57;15.18;;;1.88;;
19569;SDS011;9931;51.458;7.256;2023-12-29T08:01:22;20.60;;;2.20;;
19569;SDS011;9931;51.458;7.256;2023-12-29T08:03:47;20.07;;;2.30;;
19569;SDS011;9931;51.458;7.256;2023-12-29T08:06:13;15.20;;;1.87;;
19569;SDS011;9931;51.458;7.256;2023-12-29T08:08:38;19.83;;;2.25;;
19569;SDS011;9931;51.458;7.256;2023-12-29T08:11:03;62.10;;;5.17;;
19569;SDS011;9931;51.458;7.256;2023-12-29T08:13:28;17.63;;;2.10;;
19569;SDS011;9931;51.458;7.256;2023-12-29T08:15:53;23.60;;;2.40;;
19569;SDS011;9931;51.458;7.256;2023-12-29T08:18:18;17.43;;;2.00;;
19569;SDS011;9931;51.458;7.256;2023-12-29T08:20:44;16.02;;;1.90;;
19569;SDS011;9931;51.458;7.256;2023-12-29T08:23:09;18.30;;;2.17;;
19569;SDS011;9931;51.458;7.256;2023-12-29T08:25:34;18.13;;;2.17;;
19569;SDS011;9931;51.458;7.256;2023-12-29T08:28:01;17.08;;;2.10;;
19569;SDS011;9931;51.458;7.256;2023-12-29T08:30:27;15.45;;;1.95;;
19569;SDS011;9931;51.458;7.256;2023-12-29T08:32:52;15.90;;;1.98;;
19569;SDS011;9931;51.458;7.256;2023-12-29T08:35:17;21.17;;;2.30;;
19569;SDS011;9931;51.458;7.256;2023-12-29T08:37:42;14.63;;;1.83;;
19569;SDS011;9931;51.458;7.256;2023-12-29T08:40:08;17.93;;;2.10;;
19569;SDS011;9931;51.458;7.256;2023-12-29T08:42:33;17.67;;;2.00;;
19569;SDS011;9931;51.458;7.256;2023-12-29T08:44:59;13.57;;;1.77;;
19569;SDS011;9931;51.458;7.256;2023-12-29T08:47:24;26.08;;;2.65;;
19569;SDS011;9931;51.458;7.256;2023-12-29T08:49:49;8.80;;;1.55;;
19569;SDS011;9931;51.458;7.256;2023-12-29T08:52:14;63.33;;;5.30;;
19569;SDS011;9931;51.458;7.256;2023-12-29T08:54:40;15.63;;;2.13;;
19569;SDS011;9931;51.458;7.256;2023-12-29T08:57:05;12.23;;;1.73;;
19569;SDS011;9931;51.458;7.256;2023-12-29T08:59:31;9.63;;;1.50;;
19569;SDS011;9931;51.458;7.256;2023-12-29T09:01:57;17.70;;;2.10;;
19569;SDS011;9931;51.458;7.256;2023-12-29T09:04:22;2.10;;;1.13;;
19569;SDS011;9931;51.458;7.256;2023-12-29T09:06:47;19.57;;;2.37;;
19569;SDS011;9931;51.458;7.256;2023-12-29T09:09:12;14.20;;;1.97;;
19569;SDS011;9931;51.458;7.256;2023-12-29T09:11:38;16.85;;;2.00;;
19569;SDS011;9931;51.458;7.256;2023-12-29T09:14:03;15.55;;;2.10;;
19569;SDS011;9931;51.458;7.256;2023-12-29T09:16:29;18.13;;;2.28;;
19569;SDS011;9931;51.458;7.256;2023-12-29T09:18:54;18.90;;;2.27;;
19569;SDS011;9931;51.458;7.256;2023-12-29T09:21:20;18.65;;;2.40;;
19569;SDS011;9931;51.458;7.256;2023-12-29T09:23:45;15.68;;;2.05;;
19569;SDS011;9931;51.458;7.256;2023-12-29T09:26:10;17.45;;;2.50;;
19569;SDS011;9931;51.458;7.256;2023-12-29T09:28:35;15.43;;;1.97;;
19569;SDS011;9931;51.458;7.256;2023-12-29T09:31:00;15.73;;;2.27;;
19569;SDS011;9931;51.458;7.256;2023-12-29T09:33:26;17.52;;;2.25;;
19569;SDS011;9931;51.458;7.256;2023-12-29T09:35:51;15.20;;;2.10;;
19569;SDS011;9931;51.458;7.256;2023-12-29T09:38:16;16.92;;;3.72;;
19569;SDS011;9931;51.458;7.256;2023-12-29T09:40:41;5.33;;;1.43;;
19569;SDS011;9931;51.458;7.256;2023-12-29T09:43:06;15.73;;;1.98;;
19569;SDS011;9931;51.458;7.256;2023-12-29T09:45:33;24.05;;;2.75;;
19569;SDS011;9931;51.458;7.256;2023-12-29T09:48:02;13.93;;;2.25;;
19569;SDS011;9931;51.458;7.256;2023-12-29T09:50:29;34.90;;;3.58;;
19569;SDS011;9931;51.458;7.256;2023-12-29T09:52:54;22.07;;;2.87;;
19569;SDS011;9931;51.458;7.256;2023-12-29T09:55:20;17.52;;;2.42;;
19569;SDS011;9931;51.458;7.256;2023-12-29T09:57:46;19.30;;;2.63;;
19569;SDS011;9931;51.458;7.256;2023-12-29T10:00:12;9.95;;;2.15;;
19569;SDS011;9931;51.458;7.256;2023-12-29T10:02:40;9.45;;;2.33;;
19569;SDS011;9931;51.458;7.256;2023-12-29T10:05:05;15.82;;;2.28;;
19569;SDS011;9931;51.458;7.256;2023-12-29T10:07:37;16.52;;;2.25;;
19569;SDS011;9931;51.458;7.256;2023-12-29T10:10:05;12.77;;;2.15;;
19569;SDS011;9931;51.458;7.256;2023-12-29T10:12:34;15.07;;;2.10;;
19569;SDS011;9931;51.458;7.256;2023-12-29T10:15:05;18.77;;;2.15;;
19569;SDS011;9931;51.458;7.256;2023-12-29T10:23:06;13.43;;;1.83;;
19569;SDS011;9931;51.458;7.256;2023-12-29T10:25:33;21.35;;;2.40;;
19569;SDS011;9931;51.458;7.256;2023-12-29T10:27:58;18.70;;;3.05;;
19569;SDS011;9931;51.458;7.256;2023-12-29T10:30:24;16.65;;;3.88;;
19569;SDS011;9931;51.458;7.256;2023-12-29T10:32:50;17.42;;;2.67;;
19569;SDS011;9931;51.458;7.256;2023-12-29T10:35:15;18.13;;;2.28;;
19569;SDS011;9931;51.458;7.256;2023-12-29T10:37:41;13.30;;;1.90;;
19569;SDS011;9931;51.458;7.256;2023-12-29T10:40:07;20.13;;;2.23;;
19569;SDS011;9931;51.458;7.256;2023-12-29T10:42:32;5.20;;;1.55;;
19569;SDS011;9931;51.458;7.256;2023-12-29T10:45:08;13.02;;;1.85;;
19569;SDS011;9931;51.458;7.256;2023-12-29T10:47:33;16.77;;;2.08;;
19569;SDS011;9931;51.458;7.256;2023-12-29T10:50:00;16.15;;;2.30;;
19569;SDS011;9931;51.458;7.256;2023-12-29T10:52:26;7.30;;;1.83;;
19569;SDS011;9931;51.458;7.256;2023-12-29T10:55:03;20.90;;;4.22;;
19569;SDS011;9931;51.458;7.256;2023-12-29T10:57:29;14.57;;;2.33;;
19569;SDS011;9931;51.458;7.256;2023-12-29T10:59:54;15.27;;;2.20;;
19569;SDS011;9931;51.458;7.256;2023-12-29T11:02:20;58.22;;;5.35;;
19569;SDS011;9931;51.458;7.256;2023-12-29T11:04:45;14.67;;;2.37;;
19569;SDS011;9931;51.458;7.256;2023-12-29T11:07:11;17.30;;;2.85;;
19569;SDS011;9931;51.458;7.256;2023-12-29T11:09:37;19.08;;;2.63;;
19569;SDS011;9931;51.458;7.256;2023-12-29T11:12:03;17.87;;;2.70;;
19569;SDS011;9931;51.458;7.256;2023-12-29T11:14:28;20.02;;;2.92;;
19569;SDS011;9931;51.458;7.256;2023-12-29T11:16:54;17.23;;;3.08;;
19569;SDS011;9931;51.458;7.256;2023-12-29T11:19:19;18.73;;;3.33;;
19569;SDS011;9931;51.458;7.256;2023-12-29T11:21:45;18.90;;;3.20;;
19569;SDS011;9931;51.458;7.256;2023-12-29T11:24:11;15.75;;;2.90;;
19569;SDS011;9931;51.458;7.256;2023-12-29T11:26:36;20.52;;;3.10;;
19569;SDS011;9931;51.458;7.256;2023-12-29T11:29:02;16.98;;;2.90;;
19569;SDS011;9931;51.458;7.256;2023-12-29T11:31:29;21.08;;;3.35;;
19569;SDS011;9931;51.458;7.256;2023-12-29T11:33:59;20.23;;;3.30;;
19569;SDS011;9931;51.458;7.256;2023-12-29T11:36:28;6.65;;;2.22;;
19569;SDS011;9931;51.458;7.256;2023-12-29T11:38:58;28.67;;;3.92;;
19569;SDS011;9931;51.458;7.256;2023-12-29T11:41:27;21.40;;;3.67;;
19569;SDS011;9931;51.458;7.256;2023-12-29T11:43:59;18.42;;;3.50;;
19569;SDS011;9931;51.458;7.256;2023-12-29T11:49:02;26.98;;;4.30;;
19569;SDS011;9931;51.458;7.256;2023-12-29T11:51:31;6.93;;;2.85;;
19569;SDS011;9931;51.458;7.256;2023-12-29T11:53:56;18.95;;;4.10;;
19569;SDS011;9931;51.458;7.256;2023-12-29T11:56:22;19.10;;;3.30;;
19569;SDS011;9931;51.458;7.256;2023-12-29T11:58:47;17.75;;;3.35;;
19569;SDS011;9931;51.458;7.256;2023-12-29T12:01:13;13.07;;;3.35;;
19569;SDS011;9931;51.458;7.256;2023-12-29T12:03:38;8.38;;;2.83;;
19569;SDS011;9931;51.458;7.256;2023-12-29T12:06:03;19.27;;;3.63;;
19569;SDS011;9931;51.458;7.256;2023-12-29T12:08:32;19.92;;;3.97;;
19569;SDS011;9931;51.458;7.256;2023-12-29T12:11:41;27.70;;;4.32;;
19569;SDS011;9931;51.458;7.256;2023-12-29T12:13:47;18.88;;;3.13;;
19569;SDS011;9931;51.458;7.256;2023-12-29T12:18:56;19.42;;;3.90;;
19569;SDS011;9931;51.458;7.256;2023-12-29T12:21:23;13.98;;;3.40;;
19569;SDS011;9931;51.458;7.256;2023-12-29T12:23:48;26.02;;;4.63;;
19569;SDS011;9931;51.458;7.256;2023-12-29T12:26:14;5.13;;;3.55;;
19569;SDS011;9931;51.458;7.256;2023-12-29T12:28:40;15.57;;;4.13;;
19569;SDS011;9931;51.458;7.256;2023-12-29T12:31:08;15.88;;;4.03;;
19569;SDS011;9931;51.458;7.256;2023-12-29T12:33:34;17.00;;;4.50;;
19569;SDS011;9931;51.458;7.256;2023-12-29T12:36:00;18.33;;;3.80;;
19569;SDS011;9931;51.458;7.256;2023-12-29T12:38:25;11.13;;;3.20;;
19569;SDS011;9931;51.458;7.256;2023-12-29T12:40:50;15.77;;;2.88;;
19569;SDS011;9931;51.458;7.256;2023-12-29T12:43:16;16.70;;;3.13;;
19569;SDS011;9931;51.458;7.256;2023-12-29T12:45:42;21.10;;;3.15;;
19569;SDS011;9931;51.458;7.256;2023-12-29T12:48:14;9.68;;;2.58;;
19569;SDS011;9931;51.458;7.256;2023-12-29T12:50:44;27.55;;;3.42;;
19569;SDS011;9931;51.458;7.256;2023-12-29T12:53:11;7.88;;;2.47;;
19569;SDS011;9931;51.458;7.256;2023-12-29T12:55:36;18.67;;;2.92;;
19569;SDS011;9931;51.458;7.256;2023-12-29T12:58:02;16.77;;;3.17;;
19569;SDS011;9931;51.458;7.256;2023-12-29T13:00:28;13.60;;;2.42;;
19569;SDS011;9931;51.458;7.256;2023-12-29T13:02:53;31.67;;;3.80;;
19569;SDS011;9931;51.458;7.256;2023-12-29T13:05:18;10.32;;;2.20;;
19569;SDS011;9931;51.458;7.256;2023-12-29T13:07:44;15.98;;;2.45;;
19569;SDS011;9931;51.458;7.256;2023-12-29T13:10:09;18.13;;;2.70;;
19569;SDS011;9931;51.458;7.256;2023-12-29T13:12:34;12.50;;;2.03;;
19569;SDS011;9931;51.458;7.256;2023-12-29T13:15:06;18.92;;;2.88;;
19569;SDS011;9931;51.458;7.256;2023-12-29T13:17:33;18.75;;;2.70;;
19569;SDS011;9931;51.458;7.256;2023-12-29T13:19:58;17.95;;;2.53;;
19569;SDS011;9931;51.458;7.256;2023-12-29T13:22:23;14.87;;;2.43;;
19569;SDS011;9931;51.458;7.256;2023-12-29T13:24:49;13.98;;;2.75;;
19569;SDS011;9931;51.458;7.256;2023-12-29T13:27:14;19.58;;;2.85;;
19569;SDS011;9931;51.458;7.256;2023-12-29T13:29:40;19.95;;;2.70;;
19569;SDS011;9931;51.458;7.256;2023-12-29T13:32:14;33.97;;;3.63;;
19569;SDS011;9931;51.458;7.256;2023-12-29T13:34:48;12.18;;;2.28;;
19569;SDS011;9931;51.458;7.256;2023-12-29T13:37:16;17.17;;;2.50;;
19569;SDS011;9931;51.458;7.256;2023-12-29T13:39:44;3.85;;;1.58;;
19569;SDS011;9931;51.458;7.256;2023-12-29T13:42:10;41.33;;;4.05;;
19569;SDS011;9931;51.458;7.256;2023-12-29T13:44:37;14.57;;;2.40;;
19569;SDS011;9931;51.458;7.256;2023-12-29T13:47:04;7.18;;;2.25;;
19569;SDS011;9931;51.458;7.256;2023-12-29T13:49:29;17.38;;;2.75;;
19569;SDS011;9931;51.458;7.256;2023-12-29T13:51:58;23.65;;;3.40;;
19569;SDS011;9931;51.458;7.256;2023-12-29T13:54:23;18.15;;;3.25;;
19569;SDS011;9931;51.458;7.256;2023-12-29T13:56:52;15.70;;;3.07;;
19569;SDS011;9931;51.458;7.256;2023-12-29T13:59:18;24.33;;;3.60;;
19569;SDS011;9931;51.458;7.256;2023-12-29T14:01:43;17.55;;;2.90;;
19569;SDS011;9931;51.458;7.256;2023-12-29T14:04:10;17.57;;;3.13;;
19569;SDS011;9931;51.458;7.256;2023-12-29T14:06:43;16.88;;;2.97;;
19569;SDS011;9931;51.458;7.256;2023-12-29T14:09:15;17.98;;;2.95;;
19569;SDS011;9931;51.458;7.256;2023-12-29T14:11:48;21.20;;;3.28;;
19569;SDS011;9931;51.458;7.256;2023-12-29T14:14:13;16.83;;;4.57;;
19569;SDS011;9931;51.458;7.256;2023-12-29T14:16:39;13.45;;;2.95;;
19569;SDS011;9931;51.458;7.256;2023-12-29T14:19:04;14.90;;;4.10;;
19569;SDS011;9931;51.458;7.256;2023-12-29T14:21:31;13.55;;;3.13;;
19569;SDS011;9931;51.458;7.256;2023-12-29T14:26:34;19.25;;;3.92;;
19569;SDS011;9931;51.458;7.256;2023-12-29T14:29:03;14.55;;;2.80;;
19569;SDS011;9931;51.458;7.256;2023-12-29T14:31:28;10.27;;;2.67;;
19569;SDS011;9931;51.458;7.256;2023-12-29T14:33:54;7.78;;;3.10;;
19569;SDS011;9931;51.458;7.256;2023-12-29T14:36:19;13.40;;;3.63;;
19569;SDS011;9931;51.458;7.256;2023-12-29T14:38:44;16.47;;;3.43;;
19569;SDS011;9931;51.458;7.256;2023-12-29T14:41:09;16.85;;;3.03;;
19569;SDS011;9931;51.458;7.256;2023-12-29T14:43:34;13.47;;;3.07;;
19569;SDS011;9931;51.458;7.256;2023-12-29T14:46:00;19.00;;;3.97;;
19569;SDS011;9931;51.458;7.256;2023-12-29T14:48:25;23.77;;;3.93;;
19569;SDS011;9931;51.458;7.256;2023-12-29T14:50:50;17.00;;;2.92;;
19569;SDS011;9931;51.458;7.256;2023-12-29T14:53:15;20.10;;;3.80;;
19569;SDS011;9931;51.458;7.256;2023-12-29T14:55:40;8.65;;;2.78;;